Portada
METAR-TAF:

METAR-TAF

Aeroports :

Dammam, Aràbia Saudita

latitud: 26-28N, longitud: 049-47E, altitud: 22 m

Observació

L'informe es va fer fa 53 minuts, a les 02:00 UTC
Vent 9 kt del Oest/Nord-Oest
Temperatura 22°C
Humitat 57%
Pressió 1014 hPa
Visibilitat 10 km o més
sense núvols per sota de 1500 mi sense presència de cumulonimbus.

METAR: OEDF 220200Z 30009KT CAVOK 22/13 Q1014 NOSIG

Hora: 05:53 (02:53 UTC)

Pronòstic

L'informe es va fer fa 5 hores i 53 minuts, a les 21:00 UTC
Pronòstic vàlid del 22 a les 00 UTC al 23 a les 06 UTC
Vent 8 kt del Oest/Nord-Oest
Visibilitat 10 km o més
sense núvols per sota de 1500 mi sense presència de cumulonimbus.
Evolucionant progressivament
l' 22 a les 04 UTC al 22 a les 06 UTC
Vent 14 kt del Nord
Evolucionant progressivament
l' 22 a les 14 UTC al 22 a les 16 UTC
Vent 5 kt del Oest

TAF: OEDF 212100Z 2200/2306 30008KT CAVOK BECMG 2204/2206 36014KT BECMG 2214/2216 28005KT

Observacions i pronòstics meteorològics de més de 4000 aeroports (METAR i TAF).

Les estacions disponibles són els punts grocs i vermells al mapa.

Posi el ratolí al punt desitjat per veure el nom de l'estació.

Feu clic per veure les observacions i els pronòstics meteorològics.

Per canviar el mapa: feu clic els botons verds amb una creu de color negre per apropar; al botó verd amb un guió per allunyar la imatge; o en les fletxes verdes per a mapes adjacents.


METAR-TAF: